Englewood, Florida
Current Conditions -  °F | °C
As of 6:53 AM on Thursday 23 Oct 2014 (Local Time) from KPGD Reporting Station
Clear Clear  
Wind Chill: 67°   Ceiling: Unl
Heat Index: 67°   Visibility: 10mi
Dew Point: 61°   Wind: 8mph
Humidity: 81%   Direction: 50°NE
Pressure: 29.95"   Gusts: NA
Location:  26.95°N, 82.35°W
Report Text: KPGD 231053Z 05007KT 10SM CLR 19/16 A2995 RMK AO2 SLP143 T01940161
Loading
Personal Weather Stations






























Interactive Weather Map
Tropical Storm Tracking
New forecast layout! Learn more

10-Day Weather Forecast

Advertisements
Track Severe Weather on mobile